Main page
METAR-TAF:

METAR-TAF

Airports :

Nîmes–Alès–Camargue–Cévennes Airport

Nîmes, France

latitude: 43-45N, longitude: 004-25E, elevation: 94 m

Current weather observation

The report was made 19 minutes ago, at 10:00 UTC
Wind 10 kt from the North/Northeast
Temperature 8°C
Humidity 71%
Pressure 1016 hPa
Visibility 10 km or more
no clouds below 1500 m and no cumulonimbus

METAR: LFTW 061000Z AUTO 03010KT CAVOK 08/03 Q1016 NOSIG

Time: 11:19 (10:19 UTC)

Forecast

The report was made 2 hours and 19 minutes ago, at 08:00 UTC
Forecast valid from 06 at 09 UTC to 07 at 09 UTC
Wind 10 kt from the North/Northeast
Visibility 10 km or more
no clouds below 1500 m and no cumulonimbus

TAF: LFTW 060800Z 0609/0709 02010KT CAVOK

Weather observations and forecasts of more than 4000 airports (METAR and TAF reports).

The available stations are represented by yellow and red dots on the map.

Hover mouse over dot to see the name of the station.

Then click to see weather observations and forecasts.

To change the map : click on the green buttons with a black cross to zoom in, on the green button with a dash to zoom out, or on the green arrows for adjacent maps.


METAR-TAF: